^^
Station Historical Data
Daily Summary for April 22, 2017 Units:  English    Metric   Both
« Previous Day
Next Day »
Daily Weekly Monthly Yearly Custom
  High: Low: Average:
Temperature: 53.2 °F 48.1 °F 50.6 °F
Dew Point: 49.8 °F 39.9 °F 47.5 °F
Humidity: 97% 70% 89%
Wind Speed: 3.0mph 0.0mph 0.5mph
Wind Gust: 12.0mph - -
Wind- - WNW
Pressure: 30.03 in 29.91 in -
Precipitation: 0.08 in    
Historical Graphs
 
 
Tabular Data for April 22, 2017
Time Temperature Dew Point Pressure Wind Wind Speed Wind Gust Humidity Rainfall Rate (Hourly) Conditions
00:00 48.2 °F 47.2 °F 29.96 in Calm   1.0 mph 96% 0.00 in RA
00:15 48.1 °F 47.0 °F 29.95 in Calm   2.0 mph 96% 0.00 in CLR
00:30 48.1 °F 47.0 °F 29.96 in Calm   2.0 mph 96% 0.00 in CLR
00:45 48.1 °F 47.0 °F 29.95 in Calm     96% 0.00 in CLR
01:00 48.3 °F 47.2 °F 29.95 in Calm   1.0 mph 96% 0.00 in CLR
02:15 48.4 °F 47.3 °F 29.95 in Calm   1.0 mph 96% 0.00 in CLR
02:30 48.5 °F 47.4 °F 29.95 in Calm   1.0 mph 96% 0.00 in CLR
02:45 48.6 °F 47.5 °F 29.95 in Calm   1.0 mph 96% 0.00 in CLR
03:00 48.6 °F 47.5 °F 29.94 in Calm     96% 0.00 in CLR
03:15 48.7 °F 47.6 °F 29.93 in Calm     96% 0.00 in CLR
03:30 48.7 °F 47.6 °F 29.92 in Calm   1.0 mph 96% 0.00 in CLR
03:45 48.8 °F 48.0 °F 29.93 in Calm   1.0 mph 97% 0.00 in CLR
04:00 48.9 °F 48.1 °F 29.92 in Calm   3.0 mph 97% 0.00 in CLR
04:15 49.0 °F 48.2 °F 29.91 in Calm   4.0 mph 97% 0.00 in CLR
04:30 49.1 °F 48.3 °F 29.91 in NNW 1.0 mph 3.0 mph 97% 0.00 in CLR
04:45 49.1 °F 48.3 °F 29.92 in NNW 1.0 mph 7.0 mph 97% 0.00 in CLR
05:00 49.1 °F 48.3 °F 29.92 in Calm   6.0 mph 97% 0.00 in CLR
05:15 49.0 °F 47.9 °F 29.91 in NW 2.0 mph 6.0 mph 96% 0.00 in BKN
05:30 49.0 °F 47.9 °F 29.92 in NNW 1.0 mph 5.0 mph 96% 0.00 in BKN
05:45 48.8 °F 47.7 °F 29.93 in Calm   4.0 mph 96% 0.00 in BKN
06:00 48.8 °F 47.7 °F 29.92 in Calm   2.0 mph 96% 0.00 in BKN
06:15 48.6 °F 47.6 °F 29.93 in Calm   2.0 mph 96% 0.00 in BKN
06:30 48.4 °F 47.3 °F 29.92 in Calm   2.0 mph 96% 0.00 in BKN
06:45 48.3 °F 47.2 °F 29.92 in Calm   1.0 mph 96% 0.00 in BKN
07:00 48.7 °F 47.6 °F 29.92 in Calm   1.0 mph 96% 0.00 in BKN
07:15 49.1 °F 48.0 °F 29.93 in Calm   3.0 mph 96% 0.00 in OVC
07:30 49.6 °F 48.2 °F 29.93 in Calm   3.0 mph 95% 0.00 in OVC
07:45 50.0 °F 48.3 °F 29.94 in Calm   4.0 mph 94% 0.00 in OVC
08:00 50.2 °F 48.3 °F 29.94 in NW 1.0 mph 3.0 mph 93% 0.00 in OVC
08:15 50.6 °F 48.7 °F 29.94 in North 1.0 mph 6.0 mph 93% 0.00 in BKN
08:30 50.8 °F 48.6 °F 29.94 in NW 1.0 mph 4.0 mph 92% 0.00 in BKN
08:45 50.6 °F 48.7 °F 29.95 in Calm   2.0 mph 93% 0.00 in BKN
09:00 50.5 °F 48.6 °F 29.95 in Calm   2.0 mph 93% 0.00 in BKN
09:15 50.7 °F 48.7 °F 29.94 in Calm   2.0 mph 93% 0.00 in -RA
09:30 50.9 °F 48.7 °F 29.94 in Calm   4.0 mph 92% 0.00 in -RA
09:45 51.1 °F 48.6 °F 29.95 in Calm   3.0 mph 91% 0.00 in -RA
10:00 51.6 °F 48.7 °F 29.95 in North 1.0 mph 2.0 mph 90% 0.01 in -RA
10:15 51.8 °F 49.3 °F 29.96 in Calm   2.0 mph 91% 0.00 in -RA
10:30 51.4 °F 49.2 °F 29.96 in North 1.0 mph 3.0 mph 92% 0.01 in -RA
10:45 51.7 °F 49.5 °F 29.96 in Calm   3.0 mph 92% 0.00 in -RA
11:00 52.4 °F 49.8 °F 29.95 in WNW 1.0 mph 4.0 mph 91% 0.00 in -RA
11:15 53.0 °F 48.9 °F 29.96 in Calm   5.0 mph 86% 0.00 in -RA
11:30 52.7 °F 49.3 °F 29.97 in NNW 1.0 mph 2.0 mph 88% 0.00 in -RA
11:45 52.0 °F 48.6 °F 29.96 in West 2.0 mph 5.0 mph 88% 0.00 in -RA
12:00 52.0 °F 48.9 °F 29.96 in North 3.0 mph 6.0 mph 89% 0.01 in -RA
12:15 52.2 °F 49.4 °F 29.95 in NNW 2.0 mph 6.0 mph 90% 0.00 in -RA
12:30 51.8 °F 48.7 °F 29.95 in NW 1.0 mph 4.0 mph 89% 0.00 in -RA
12:45 52.2 °F 49.1 °F 29.94 in NW 1.0 mph 3.0 mph 89% 0.00 in -RA
13:00 52.8 °F 49.6 °F 29.94 in NNW 2.0 mph 4.0 mph 89% 0.01 in -RA
13:15 53.0 °F 49.5 °F 29.93 in West 2.0 mph 5.0 mph 88% 0.00 in -RA
13:30 52.6 °F 48.8 °F 29.94 in NW 1.0 mph 5.0 mph 87% 0.00 in -RA
13:45 53.0 °F 49.2 °F 29.94 in Calm   3.0 mph 87% 0.00 in -RA
14:00 53.0 °F 48.9 °F 29.93 in Calm   3.0 mph 86% 0.00 in -RA
14:15 53.1 °F 49.0 °F 29.94 in West 1.0 mph 3.0 mph 86% 0.00 in OVC
14:30 53.2 °F 49.4 °F 29.94 in Calm   3.0 mph 87% 0.00 in OVC
14:45 52.8 °F 49.0 °F 29.94 in WNW 1.0 mph 3.0 mph 87% 0.00 in OVC
15:00 52.6 °F 49.1 °F 29.94 in Calm   3.0 mph 88% 0.00 in OVC
15:15 52.4 °F 49.3 °F 29.94 in Calm   3.0 mph 89% 0.00 in -RA
15:30 52.1 °F 49.3 °F 29.94 in NNW 1.0 mph 6.0 mph 90% 0.00 in -RA
15:45 51.9 °F 49.1 °F 29.94 in Calm   5.0 mph 90% 0.00 in -RA
16:00 51.6 °F 48.8 °F 29.94 in North 1.0 mph 4.0 mph 90% 0.01 in -RA
16:15 51.3 °F 48.7 °F 29.95 in NNW 1.0 mph 3.0 mph 91% 0.01 in RA
16:30 51.2 °F 49.0 °F 29.95 in Calm   2.0 mph 92% 0.02 in RA
16:45 51.1 °F 49.1 °F 29.95 in Calm   3.0 mph 93% 0.00 in BKN
17:00 51.3 °F 49.3 °F 29.96 in Calm   2.0 mph 93% 0.00 in BKN
17:15 51.6 °F 49.3 °F 29.96 in Calm   2.0 mph 92% 0.00 in -RA
17:30 51.4 °F 48.9 °F 29.96 in Calm   3.0 mph 91% 0.00 in -RA
17:45 51.2 °F 48.7 °F 29.96 in Calm   1.0 mph 91% 0.00 in -RA
18:00 51.2 °F 48.7 °F 29.96 in Calm   1.0 mph 91% 0.00 in -RA
18:15 51.4 °F 48.9 °F 29.95 in Calm   2.0 mph 91% 0.00 in BKN
18:30 51.5 °F 48.7 °F 29.96 in Calm   3.0 mph 90% 0.00 in BKN
18:45 51.6 °F 48.2 °F 29.96 in Calm   2.0 mph 88% 0.00 in BKN
19:00 51.6 °F 48.2 °F 29.96 in NNE 1.0 mph 2.0 mph 88% 0.00 in BKN
19:15 51.5 °F 47.8 °F 29.97 in Calm   1.0 mph 87% 0.00 in SCT
19:30 51.4 °F 47.7 °F 29.98 in Calm   1.0 mph 87% 0.00 in SCT
19:45 51.2 °F 47.8 °F 29.98 in Calm     88% 0.00 in SCT
20:00 51.1 °F 47.7 °F 29.98 in Calm   1.0 mph 88% 0.00 in SCT
20:15 50.9 °F 47.8 °F 29.98 in Calm   1.0 mph 89% 0.00 in BKN
20:30 51.0 °F 47.9 °F 29.98 in Calm   1.0 mph 89% 0.00 in BKN
20:45 50.9 °F 45.3 °F 29.99 in NNW 3.0 mph 12.0 mph 81% 0.00 in BKN
21:00 50.8 °F 42.8 °F 30.00 in NNW 1.0 mph 9.0 mph 74% 0.00 in BKN
21:15 50.6 °F 42.6 °F 30.00 in NNW 1.0 mph 5.0 mph 74% 0.00 in BKN
21:30 50.3 °F 42.7 °F 30.00 in NW 1.0 mph 4.0 mph 75% 0.00 in BKN
21:45 50.3 °F 42.0 °F 30.00 in NNW 1.0 mph 6.0 mph 73% 0.00 in BKN
22:00 50.2 °F 41.9 °F 30.01 in North 1.0 mph 4.0 mph 73% 0.00 in BKN
22:15 50.1 °F 42.1 °F 30.01 in North 1.0 mph 5.0 mph 74% 0.00 in BKN
22:30 49.9 °F 41.6 °F 30.01 in Calm   4.0 mph 73% 0.00 in BKN
22:45 49.8 °F 40.8 °F 30.01 in NNW 1.0 mph 7.0 mph 71% 0.00 in BKN
23:00 49.7 °F 40.3 °F 30.01 in NW 2.0 mph 7.0 mph 70% 0.00 in BKN
23:15 49.5 °F 40.1 °F 30.01 in NNW 2.0 mph 7.0 mph 70% 0.00 in OVC
23:30 48.7 °F 40.1 °F 30.02 in Calm   8.0 mph 72% 0.00 in OVC
23:45 48.2 °F 39.9 °F 30.03 in Calm   8.0 mph 73% 0.00 in OVC
TarryTown NY Weather
Compliments of Weather Underground - 1.5 mb